createdAt,value
2023-03-07T00:01:34.566Z,10.50
2023-03-07T00:06:39.153Z,6.25
2023-03-07T00:11:42.337Z,4.78
2023-03-07T00:16:45.523Z,6.10
2023-03-07T00:21:50.081Z,8.35
2023-03-07T00:26:53.256Z,5.57
2023-03-07T00:31:56.420Z,4.80
2023-03-07T00:37:01.063Z,3.67
2023-03-07T00:42:04.479Z,4.70
2023-03-07T00:47:08.111Z,5.15
2023-03-07T00:52:12.630Z,4.90
2023-03-07T00:57:15.772Z,6.55
2023-03-07T01:02:18.964Z,3.92
2023-03-07T01:07:23.566Z,4.50
2023-03-07T01:12:26.700Z,4.22
2023-03-07T01:17:29.817Z,5.88
2023-03-07T01:22:34.465Z,4.28
2023-03-07T01:27:37.793Z,10.65
2023-03-07T01:32:41.117Z,11.43
2023-03-07T01:37:45.713Z,9.77
2023-03-07T01:42:48.945Z,14.25
2023-03-07T01:47:52.255Z,11.48
2023-03-07T01:53:01.616Z,16.83
2023-03-07T01:58:07.535Z,16.23
2023-03-07T02:03:19.516Z,16.25
2023-03-07T02:08:28.844Z,12.85
2023-03-07T02:13:32.120Z,22.13
2023-03-07T02:18:40.021Z,14.95
2023-03-07T02:23:54.495Z,19.60
2023-03-07T02:29:00.507Z,20.57
2023-03-07T02:34:03.749Z,15.80
2023-03-07T02:39:07.786Z,18.90
2023-03-07T02:44:12.768Z,19.40
2023-03-07T02:49:15.947Z,13.05
2023-03-07T02:54:19.113Z,19.48
2023-03-07T02:59:23.724Z,19.73
2023-03-07T03:04:26.902Z,17.77
2023-03-07T03:09:30.064Z,22.20
2023-03-07T03:14:34.839Z,17.58
2023-03-07T03:19:38.123Z,13.40
2023-03-07T03:24:42.165Z,16.90
2023-03-07T03:29:46.948Z,22.33
2023-03-07T03:34:50.131Z,16.60
2023-03-07T03:39:54.603Z,17.60
2023-03-07T03:44:59.162Z,17.35
2023-03-07T03:50:02.270Z,17.88
2023-03-07T03:55:05.848Z,14.80
2023-03-07T04:00:14.950Z,23.63
2023-03-07T04:05:18.393Z,11.07
2023-03-07T04:10:21.536Z,19.55
2023-03-07T04:15:26.152Z,15.98
2023-03-07T04:20:29.314Z,17.98
2023-03-07T04:25:33.519Z,16.85
2023-03-07T04:30:38.077Z,17.27
2023-03-07T04:35:41.397Z,21.05
2023-03-07T04:40:44.635Z,19.63
2023-03-07T04:45:49.252Z,21.80
2023-03-07T04:50:53.416Z,16.90
2023-03-07T04:56:00.252Z,15.83
2023-03-07T05:01:06.192Z,20.38
2023-03-07T05:06:12.390Z,24.10
2023-03-07T05:11:15.590Z,16.58
2023-03-07T05:16:20.182Z,13.57
2023-03-07T05:21:23.322Z,17.10
2023-03-07T05:26:26.496Z,14.48
2023-03-07T05:31:31.097Z,16.35
2023-03-07T05:36:34.252Z,13.27
2023-03-07T05:41:37.397Z,18.85
2023-03-07T05:46:41.908Z,17.13
2023-03-07T05:51:45.073Z,15.10
2023-03-07T05:56:48.187Z,21.15
2023-03-07T06:01:52.728Z,17.08
2023-03-07T06:06:55.999Z,20.30
2023-03-07T06:11:59.142Z,14.57
2023-03-07T06:17:04.528Z,17.48
2023-03-07T06:22:08.955Z,16.42
2023-03-07T06:27:12.165Z,15.23
2023-03-07T06:32:16.816Z,17.48
2023-03-07T06:37:20.223Z,21.83
2023-03-07T06:42:23.436Z,15.00
2023-03-07T06:47:28.037Z,22.88
2023-03-07T06:52:31.176Z,15.60
2023-03-07T06:57:34.685Z,16.23
2023-03-07T07:02:39.406Z,14.95
2023-03-07T07:07:42.597Z,20.25
2023-03-07T07:12:45.703Z,20.33
2023-03-07T07:17:51.498Z,19.58
2023-03-07T07:22:54.649Z,18.38
2023-03-07T07:27:57.781Z,15.80
2023-03-07T07:33:02.400Z,21.63
2023-03-07T07:38:05.547Z,19.40
2023-03-07T07:43:08.725Z,16.58
2023-03-07T07:48:13.263Z,16.92
2023-03-07T07:53:17.967Z,13.18
2023-03-07T07:58:21.172Z,15.02
2023-03-07T08:03:25.998Z,18.77
2023-03-07T08:08:29.391Z,19.67
2023-03-07T08:13:32.881Z,14.52
2023-03-07T08:18:37.622Z,12.10
2023-03-07T08:23:40.877Z,22.23
2023-03-07T08:28:44.240Z,16.40
2023-03-07T08:33:49.478Z,20.92
2023-03-07T08:38:53.449Z,24.10
2023-03-07T08:43:56.683Z,14.30
2023-03-07T08:49:01.316Z,7.95
2023-03-07T08:54:04.571Z,12.15
2023-03-07T08:59:07.923Z,17.17
2023-03-07T09:04:12.681Z,12.15
2023-03-07T09:09:15.968Z,12.13
2023-03-07T09:14:19.283Z,6.85
2023-03-07T09:19:27.746Z,10.13
2023-03-07T09:24:31.802Z,10.43
2023-03-07T09:29:35.104Z,12.70
2023-03-07T09:34:39.869Z,9.77
2023-03-07T09:39:43.184Z,11.45
2023-03-07T09:45:02.413Z,17.52
2023-03-07T09:50:15.123Z,12.90
2023-03-07T09:55:20.950Z,14.80
2023-03-07T10:00:28.339Z,11.07
2023-03-07T10:05:36.937Z,10.57
2023-03-07T10:10:44.474Z,12.93
2023-03-07T10:15:49.788Z,12.75
2023-03-07T10:21:02.193Z,12.27
2023-03-07T10:26:11.379Z,11.93
2023-03-07T10:31:23.969Z,14.65
2023-03-07T10:36:39.241Z,10.95
2023-03-07T10:41:42.472Z,13.75
2023-03-07T10:46:55.305Z,15.75
2023-03-07T10:52:04.498Z,13.35
2023-03-07T10:57:10.404Z,13.32
2023-03-07T11:02:32.911Z,14.30
2023-03-07T11:07:38.297Z,14.00
2023-03-07T11:12:47.301Z,17.23
2023-03-07T11:17:51.434Z,14.95
2023-03-07T11:23:19.675Z,15.63
2023-03-07T11:28:28.837Z,15.07
2023-03-07T11:33:58.643Z,14.45
2023-03-07T11:39:11.389Z,15.80
2023-03-07T11:44:24.387Z,8.38
2023-03-07T11:49:45.025Z,10.00
2023-03-07T11:55:02.445Z,11.27
2023-03-07T12:00:24.712Z,6.95
2023-03-07T12:05:39.580Z,6.75
2023-03-07T12:10:59.005Z,8.20
2023-03-07T12:16:11.571Z,10.85
2023-03-07T12:21:26.169Z,11.02
2023-03-07T12:26:43.805Z,12.35
2023-03-07T12:31:49.817Z,14.73
2023-03-07T12:36:57.268Z,9.52
2023-03-07T12:42:06.946Z,9.77
2023-03-07T12:47:19.435Z,11.20
2023-03-07T12:52:31.592Z,10.27
2023-03-07T12:57:41.484Z,8.65
2023-03-07T13:02:50.982Z,10.18
2023-03-07T13:07:55.503Z,11.90
2023-03-07T13:13:00.211Z,9.50
2023-03-07T13:18:03.812Z,9.65
2023-03-07T13:23:28.978Z,8.18
2023-03-07T13:33:44.958Z,11.50
2023-03-07T13:38:48.235Z,11.43
2023-03-07T13:44:03.869Z,10.57
2023-03-07T13:49:08.652Z,12.93
2023-03-07T13:59:27.885Z,11.88
2023-03-07T14:09:48.182Z,9.43
2023-03-07T14:15:11.253Z,10.65
2023-03-07T14:20:21.959Z,12.20
2023-03-07T14:25:27.537Z,11.05
2023-03-07T14:30:34.504Z,12.68
2023-03-07T14:35:40.417Z,9.30
2023-03-07T14:40:56.210Z,15.18
2023-03-07T14:46:08.330Z,9.30
2023-03-07T14:51:17.098Z,12.30
2023-03-07T14:56:23.922Z,9.27
2023-03-07T15:01:35.238Z,9.15
2023-03-07T15:06:45.085Z,14.35
2023-03-07T15:11:53.372Z,12.52
2023-03-07T15:17:03.244Z,12.18
2023-03-07T15:22:13.777Z,9.27
2023-03-07T15:27:23.199Z,14.45
2023-03-07T15:32:36.084Z,11.63
2023-03-07T15:37:53.324Z,13.20
2023-03-07T15:42:58.125Z,17.85
2023-03-07T15:53:10.772Z,13.70
2023-03-07T15:58:15.702Z,18.15
2023-03-07T16:03:26.773Z,13.48
2023-03-07T16:08:30.050Z,12.75
2023-03-07T16:13:37.276Z,12.00
2023-03-07T16:18:43.534Z,13.73
2023-03-07T16:23:47.397Z,10.65
2023-03-07T16:28:50.837Z,15.40
2023-03-07T16:33:56.159Z,15.15
2023-03-07T16:38:59.284Z,15.65
2023-03-07T16:44:02.826Z,13.68
2023-03-07T16:49:07.516Z,14.70
2023-03-07T16:59:15.834Z,15.07
2023-03-07T17:04:20.495Z,13.80
2023-03-07T17:09:23.728Z,12.15
2023-03-07T17:14:27.182Z,13.98
2023-03-07T17:19:33.786Z,17.90
2023-03-07T17:24:37.107Z,16.05
2023-03-07T17:29:43.321Z,17.00
2023-03-07T17:34:48.186Z,15.98
2023-03-07T17:39:51.468Z,15.75
2023-03-07T17:44:54.752Z,8.20
2023-03-07T17:50:00.030Z,9.55
2023-03-07T17:55:03.631Z,9.00
2023-03-07T18:00:12.385Z,8.75
2023-03-07T18:05:17.967Z,6.53
2023-03-07T18:10:22.758Z,5.90
2023-03-07T18:20:33.101Z,8.73
2023-03-07T18:25:36.368Z,8.55
2023-03-07T18:30:39.649Z,10.35
2023-03-07T18:35:44.388Z,8.30
2023-03-07T18:45:51.996Z,13.70
2023-03-07T18:51:00.721Z,15.88
2023-03-07T18:56:05.035Z,22.13
2023-03-07T19:01:13.400Z,51.22
2023-03-07T19:06:19.336Z,31.73
2023-03-07T19:11:22.804Z,18.65
2023-03-07T19:16:28.317Z,22.10
2023-03-07T19:21:33.430Z,24.75
2023-03-07T19:26:36.619Z,16.67
2023-03-07T19:31:41.093Z,17.25
2023-03-07T19:36:46.616Z,14.13
2023-03-07T19:41:49.881Z,16.13
2023-03-07T19:46:53.117Z,16.42
2023-03-07T19:51:57.819Z,18.92
2023-03-07T19:57:01.158Z,18.02
2023-03-07T20:02:04.414Z,14.90
2023-03-07T20:07:09.119Z,15.13
2023-03-07T20:12:12.522Z,16.88
2023-03-07T20:17:15.804Z,13.02
2023-03-07T20:22:20.921Z,14.65
2023-03-07T20:27:25.210Z,13.88
2023-03-07T20:32:28.612Z,18.80
2023-03-07T20:37:35.281Z,17.60
2023-03-07T20:42:38.498Z,20.05
2023-03-07T20:47:41.821Z,17.83
2023-03-07T20:52:46.517Z,21.65
2023-03-07T20:57:49.761Z,15.80
2023-03-07T21:03:05.227Z,13.00
2023-03-07T21:08:10.339Z,17.48
2023-03-07T21:13:13.778Z,22.02
2023-03-07T21:18:16.953Z,18.58
2023-03-07T21:23:21.594Z,19.85
2023-03-07T21:28:24.904Z,24.77
2023-03-07T21:33:28.254Z,31.48
2023-03-07T21:38:34.080Z,20.38
2023-03-07T21:43:37.437Z,17.50
2023-03-07T21:48:41.383Z,18.58
2023-03-07T21:53:46.094Z,22.33
2023-03-07T21:58:50.737Z,20.02
2023-03-07T22:03:55.265Z,21.77
2023-03-07T22:09:01.407Z,19.85
2023-03-07T22:14:04.933Z,18.10
2023-03-07T22:19:08.159Z,23.00
2023-03-07T22:24:13.494Z,18.20
2023-03-07T22:29:16.697Z,18.42
2023-03-07T22:34:19.931Z,21.20
2023-03-07T22:39:24.913Z,23.90
2023-03-07T22:49:31.223Z,17.77
2023-03-07T22:54:39.391Z,19.60
2023-03-07T22:59:42.568Z,19.92
2023-03-07T23:04:46.279Z,17.42
2023-03-07T23:09:50.925Z,21.23
2023-03-07T23:14:54.341Z,22.27
2023-03-07T23:19:57.825Z,19.33
2023-03-07T23:25:02.561Z,19.88
2023-03-07T23:30:06.912Z,18.23
2023-03-07T23:35:11.743Z,17.77
2023-03-07T23:40:16.674Z,18.65
2023-03-07T23:50:26.102Z,20.52
2023-03-07T23:55:30.741Z,17.73
